createdAt,value
2019-04-26T00:01:58.327Z,81.90
2019-04-26T00:04:31.743Z,81.40
2019-04-26T00:07:03.349Z,81.20
2019-04-26T00:09:36.145Z,81.40
2019-04-26T00:12:27.656Z,81.00
2019-04-26T00:14:58.703Z,82.10
2019-04-26T00:17:36.736Z,82.20
2019-04-26T00:20:07.265Z,82.00
2019-04-26T00:22:36.017Z,82.30
2019-04-26T00:25:06.604Z,82.10
2019-04-26T00:27:37.439Z,82.80
2019-04-26T00:30:07.398Z,82.30
2019-04-26T00:32:36.323Z,82.70
2019-04-26T00:35:07.269Z,82.40
2019-04-26T00:37:36.119Z,82.60
2019-04-26T00:40:06.098Z,82.70
2019-04-26T00:42:35.078Z,82.60
2019-04-26T00:45:12.495Z,82.90
2019-04-26T00:47:42.229Z,82.60
2019-04-26T00:50:13.780Z,82.90
2019-04-26T00:52:43.970Z,83.00
2019-04-26T00:55:14.162Z,82.90
2019-04-26T00:57:45.330Z,83.20
2019-04-26T01:00:18.226Z,83.40
2019-04-26T01:02:50.543Z,84.30
2019-04-26T01:05:19.637Z,83.80
2019-04-26T01:07:51.107Z,83.40
2019-04-26T01:10:21.648Z,83.90
2019-04-26T01:12:51.587Z,83.00
2019-04-26T01:15:22.006Z,83.20
2019-04-26T01:17:52.914Z,83.00
2019-04-26T01:20:22.939Z,83.50
2019-04-26T01:22:54.019Z,83.10
2019-04-26T01:25:28.954Z,82.00
2019-04-26T01:28:03.662Z,82.10
2019-04-26T01:30:35.058Z,82.00
2019-04-26T01:33:03.790Z,82.10
2019-04-26T01:35:32.770Z,84.00
2019-04-26T01:38:02.124Z,83.40
2019-04-26T01:40:33.529Z,83.30
2019-04-26T01:43:05.437Z,83.30
2019-04-26T01:45:38.212Z,82.80
2019-04-26T01:48:11.628Z,83.10
2019-04-26T01:50:40.455Z,82.80
2019-04-26T01:53:09.165Z,83.20
2019-04-26T01:55:37.891Z,82.70
2019-04-26T01:58:06.678Z,82.80
2019-04-26T02:00:37.133Z,82.70
2019-04-26T02:03:17.003Z,83.00
2019-04-26T02:05:45.855Z,83.50
2019-04-26T02:08:14.582Z,83.80
2019-04-26T02:10:43.605Z,84.00
2019-04-26T02:13:12.501Z,84.80
2019-04-26T02:15:45.518Z,84.70
2019-04-26T02:18:20.396Z,84.60
2019-04-26T02:21:07.265Z,84.50
2019-04-26T02:23:37.762Z,84.50
2019-04-26T02:26:25.552Z,84.70
2019-04-26T02:28:55.374Z,84.70
2019-04-26T02:31:27.357Z,84.30
2019-04-26T02:33:58.208Z,84.00
2019-04-26T02:36:45.265Z,84.50
2019-04-26T02:38:57.431Z,84.20
2019-04-26T02:41:31.079Z,84.20
2019-04-26T02:44:00.091Z,85.40
2019-04-26T02:46:40.750Z,86.40
2019-04-26T02:49:31.253Z,86.50
2019-04-26T02:52:03.425Z,83.70
2019-04-26T02:54:47.339Z,85.00
2019-04-26T02:57:22.137Z,84.70
2019-04-26T03:00:05.954Z,84.60
2019-04-26T03:02:37.308Z,84.90
2019-04-26T03:05:06.680Z,85.40
2019-04-26T03:07:49.402Z,85.40
2019-04-26T03:10:18.396Z,85.60
2019-04-26T03:12:47.435Z,86.10
2019-04-26T03:15:22.744Z,86.10
2019-04-26T03:17:59.996Z,86.00
2019-04-26T03:20:36.252Z,85.70
2019-04-26T03:23:41.000Z,84.80
2019-04-26T03:26:04.166Z,85.80
2019-04-26T03:28:42.053Z,85.00
2019-04-26T03:31:23.683Z,84.80
2019-04-26T03:34:17.526Z,83.30
2019-04-26T03:37:23.123Z,83.50
2019-04-26T03:40:23.842Z,84.20
2019-04-26T03:43:13.852Z,82.80
2019-04-26T03:45:58.511Z,83.40
2019-04-26T03:48:54.209Z,83.20
2019-04-26T03:51:43.044Z,82.90
2019-04-26T03:54:22.904Z,83.40
2019-04-26T03:57:24.456Z,83.60
2019-04-26T04:00:01.564Z,84.20
2019-04-26T04:02:39.259Z,84.40
2019-04-26T04:05:33.585Z,84.70
2019-04-26T04:08:03.477Z,84.70
2019-04-26T04:10:41.999Z,85.30
2019-04-26T04:13:16.923Z,85.40
2019-04-26T04:15:51.333Z,85.40
2019-04-26T04:18:27.734Z,85.70
2019-04-26T04:21:19.663Z,85.20
2019-04-26T04:24:01.853Z,84.90
2019-04-26T04:26:48.759Z,85.00
2019-04-26T04:29:42.683Z,85.30
2019-04-26T04:32:18.371Z,84.80
2019-04-26T04:34:52.759Z,84.70
2019-04-26T04:37:22.100Z,84.50
2019-04-26T04:40:27.688Z,84.70
2019-04-26T04:43:05.204Z,84.90
2019-04-26T04:46:02.742Z,85.90
2019-04-26T04:49:15.670Z,86.30
2019-04-26T04:52:11.522Z,85.50
2019-04-26T04:54:45.002Z,85.50
2019-04-26T04:57:37.737Z,85.00
2019-04-26T05:00:17.585Z,86.40
2019-04-26T05:02:58.155Z,85.00
2019-04-26T05:06:07.678Z,85.00
2019-04-26T05:09:01.071Z,85.50
2019-04-26T05:11:49.700Z,85.30
2019-04-26T05:14:25.583Z,85.70
2019-04-26T05:17:31.473Z,86.00
2019-04-26T05:20:09.256Z,85.90
2019-04-26T05:23:08.781Z,85.30
2019-04-26T05:26:33.788Z,85.10
2019-04-26T05:29:34.035Z,84.50
2019-04-26T05:32:37.572Z,84.50
2019-04-26T05:35:42.271Z,85.60
2019-04-26T05:38:37.841Z,86.80
2019-04-26T05:41:48.615Z,87.40
2019-04-26T05:44:42.712Z,87.40
2019-04-26T05:47:28.078Z,87.00
2019-04-26T05:50:18.317Z,87.30
2019-04-26T05:53:06.899Z,87.10
2019-04-26T05:55:40.365Z,87.00
2019-04-26T05:58:46.073Z,88.00
2019-04-26T06:01:34.715Z,87.90
2019-04-26T06:04:29.517Z,87.10
2019-04-26T06:07:29.448Z,87.10
2019-04-26T06:10:20.724Z,87.60
2019-04-26T06:13:19.352Z,87.60
2019-04-26T06:16:14.936Z,87.10
2019-04-26T06:18:57.331Z,85.80
2019-04-26T06:21:32.203Z,85.50
2019-04-26T06:24:27.485Z,85.40
2019-04-26T06:27:13.359Z,86.40
2019-04-26T06:29:53.841Z,86.00
2019-04-26T06:32:56.221Z,84.20
2019-04-26T06:35:20.295Z,85.20
2019-04-26T06:38:06.387Z,84.60
2019-04-26T06:40:57.946Z,84.10
2019-04-26T06:43:34.123Z,83.40
2019-04-26T06:46:34.520Z,83.80
2019-04-26T06:49:21.855Z,82.00
2019-04-26T06:52:08.655Z,84.00
2019-04-26T06:54:59.721Z,83.40
2019-04-26T06:58:00.984Z,82.40
2019-04-26T07:00:34.560Z,82.00
2019-04-26T07:03:07.750Z,81.70
2019-04-26T07:05:44.900Z,81.70
2019-04-26T07:08:23.206Z,81.00
2019-04-26T07:11:15.414Z,80.10
2019-04-26T07:13:59.184Z,80.50
2019-04-26T07:16:47.171Z,81.30
2019-04-26T07:19:59.635Z,79.70
2019-04-26T07:23:13.337Z,78.90
2019-04-26T07:26:15.149Z,78.60
2019-04-26T07:28:55.598Z,80.00
2019-04-26T07:31:33.515Z,77.80
2019-04-26T07:34:21.669Z,76.00
2019-04-26T07:36:51.278Z,76.80
2019-04-26T07:39:45.355Z,76.10
2019-04-26T07:42:50.632Z,75.90
2019-04-26T07:45:41.149Z,76.30
2019-04-26T07:48:18.479Z,74.70
2019-04-26T07:51:23.972Z,74.60
2019-04-26T07:54:21.612Z,73.90
2019-04-26T07:56:59.236Z,73.10
2019-04-26T07:59:33.947Z,73.40
2019-04-26T08:02:21.353Z,72.70
2019-04-26T08:04:53.295Z,73.70
2019-04-26T08:07:24.912Z,71.60
2019-04-26T08:10:14.799Z,71.90
2019-04-26T08:12:43.856Z,71.80
2019-04-26T08:15:24.824Z,71.40
2019-04-26T08:17:57.853Z,69.50
2019-04-26T08:20:34.079Z,68.60
2019-04-26T08:23:16.067Z,68.40
2019-04-26T08:25:39.046Z,67.50
2019-04-26T08:28:08.408Z,68.00
2019-04-26T08:30:46.223Z,68.60
2019-04-26T08:33:14.691Z,68.20
2019-04-26T08:35:49.005Z,68.10
2019-04-26T08:38:22.412Z,68.00
2019-04-26T08:40:48.059Z,66.20
2019-04-26T08:43:34.683Z,66.40
2019-04-26T08:46:12.965Z,67.00
2019-04-26T08:48:53.804Z,66.40
2019-04-26T08:51:23.699Z,66.00
2019-04-26T08:53:53.628Z,65.50
2019-04-26T08:56:28.111Z,65.10
2019-04-26T08:59:00.202Z,65.20
2019-04-26T09:01:36.504Z,64.30
2019-04-26T09:04:09.838Z,63.60
2019-04-26T09:06:46.412Z,62.70
2019-04-26T09:09:18.224Z,63.50
2019-04-26T09:11:59.069Z,63.20
2019-04-26T09:14:19.235Z,62.80
2019-04-26T09:16:50.485Z,62.70
2019-04-26T09:19:19.227Z,63.20
2019-04-26T09:21:51.825Z,64.00
2019-04-26T09:24:33.550Z,61.60
2019-04-26T09:27:13.076Z,60.80
2019-04-26T09:29:52.100Z,59.10
2019-04-26T09:32:24.121Z,58.60
2019-04-26T09:34:55.463Z,57.70
2019-04-26T09:37:25.476Z,58.00
2019-04-26T09:39:54.402Z,56.70
2019-04-26T09:42:28.906Z,57.90
2019-04-26T09:45:13.652Z,58.70
2019-04-26T09:47:56.469Z,59.90
2019-04-26T09:50:26.800Z,60.50
2019-04-26T09:52:58.323Z,58.10
2019-04-26T09:55:35.269Z,57.70
2019-04-26T09:57:59.813Z,58.00
2019-04-26T10:00:30.343Z,57.30
2019-04-26T10:03:05.398Z,57.80
2019-04-26T10:05:32.691Z,57.90
2019-04-26T10:08:02.454Z,56.30
2019-04-26T10:10:35.259Z,58.80
2019-04-26T10:13:14.913Z,55.40
2019-04-26T10:15:47.052Z,55.40
2019-04-26T10:18:20.481Z,54.00
2019-04-26T10:20:50.856Z,54.40
2019-04-26T10:23:20.731Z,54.40
2019-04-26T10:25:52.008Z,53.00
2019-04-26T10:28:20.884Z,54.60
2019-04-26T10:30:49.728Z,54.40
2019-04-26T10:33:18.799Z,53.40
2019-04-26T10:35:47.602Z,53.50
2019-04-26T10:38:23.836Z,52.60
2019-04-26T10:40:51.620Z,53.70
2019-04-26T10:43:20.348Z,53.70
2019-04-26T10:45:53.491Z,53.30
2019-04-26T10:48:19.866Z,53.40
2019-04-26T10:50:48.904Z,53.20
2019-04-26T10:53:19.264Z,53.90
2019-04-26T10:56:04.775Z,55.20
2019-04-26T10:58:36.184Z,55.60
2019-04-26T11:01:08.483Z,55.70
2019-04-26T11:03:37.199Z,56.30
2019-04-26T11:06:05.958Z,56.10
2019-04-26T11:08:34.804Z,56.80
2019-04-26T11:11:03.623Z,57.30
2019-04-26T11:13:35.619Z,58.00
2019-04-26T11:16:07.069Z,58.20
2019-04-26T11:18:35.695Z,58.10
2019-04-26T11:21:05.981Z,57.10
2019-04-26T11:23:34.915Z,57.80
2019-04-26T11:26:03.641Z,57.60
2019-04-26T11:28:32.734Z,57.30
2019-04-26T11:31:01.587Z,58.10
2019-04-26T11:33:30.386Z,58.00
2019-04-26T11:35:59.397Z,58.10
2019-04-26T11:38:31.340Z,58.50
2019-04-26T11:41:06.301Z,58.00
2019-04-26T11:43:31.061Z,58.10
2019-04-26T11:46:04.412Z,58.40
2019-04-26T11:48:30.677Z,58.30
2019-04-26T11:50:59.810Z,59.00
2019-04-26T11:53:28.531Z,57.80
2019-04-26T11:56:00.197Z,58.00
2019-04-26T11:58:28.945Z,58.00
2019-04-26T12:01:00.315Z,57.50
2019-04-26T12:03:29.338Z,57.20
2019-04-26T12:06:15.130Z,56.80
2019-04-26T12:08:47.560Z,57.10
2019-04-26T12:11:18.591Z,55.80
2019-04-26T12:13:51.157Z,55.50
2019-04-26T12:16:22.783Z,56.30
2019-04-26T12:18:51.523Z,55.00
2019-04-26T12:21:21.500Z,54.20
2019-04-26T12:23:51.396Z,55.60
2019-04-26T12:26:21.648Z,54.10
2019-04-26T12:28:51.291Z,54.10
2019-04-26T12:31:20.009Z,53.20
2019-04-26T12:33:52.479Z,53.40
2019-04-26T12:36:22.463Z,51.10
2019-04-26T12:38:51.187Z,50.50
2019-04-26T12:41:25.293Z,47.30
2019-04-26T12:43:54.564Z,49.10
2019-04-26T12:46:27.279Z,49.90
2019-04-26T12:48:56.935Z,51.00
2019-04-26T12:51:28.423Z,51.70
2019-04-26T12:53:57.349Z,51.10
2019-04-26T12:56:26.562Z,51.30
2019-04-26T12:58:56.530Z,51.10
2019-04-26T13:01:25.228Z,51.30
2019-04-26T13:04:06.919Z,51.40
2019-04-26T13:06:37.809Z,51.10
2019-04-26T13:09:16.417Z,51.70
2019-04-26T13:11:58.802Z,51.70
2019-04-26T13:14:38.643Z,52.30
2019-04-26T13:17:24.099Z,52.50
2019-04-26T13:19:55.456Z,52.70
2019-04-26T13:22:24.519Z,51.30
2019-04-26T13:24:53.468Z,51.00
2019-04-26T13:27:23.415Z,51.60
2019-04-26T13:30:01.666Z,51.10
2019-04-26T13:32:24.652Z,51.90
2019-04-26T13:34:53.577Z,52.00
2019-04-26T13:37:22.420Z,51.10
2019-04-26T13:39:55.270Z,50.70
2019-04-26T13:42:23.674Z,51.30
2019-04-26T13:45:03.336Z,51.00
2019-04-26T13:47:37.572Z,50.30
2019-04-26T13:50:18.098Z,49.20
2019-04-26T13:52:47.305Z,48.50
2019-04-26T13:55:18.340Z,47.60
2019-04-26T13:57:47.399Z,46.60
2019-04-26T14:00:21.888Z,45.80
2019-04-26T14:02:51.068Z,46.50
2019-04-26T14:05:19.771Z,44.90
2019-04-26T14:07:49.287Z,44.40
2019-04-26T14:10:19.435Z,42.70
2019-04-26T14:12:49.925Z,44.00
2019-04-26T14:15:19.687Z,44.80
2019-04-26T14:17:48.691Z,44.50
2019-04-26T14:20:19.215Z,44.40
2019-04-26T14:22:50.345Z,43.10
2019-04-26T14:25:23.532Z,43.70
2019-04-26T14:27:54.386Z,42.50
2019-04-26T14:30:23.193Z,44.40
2019-04-26T14:32:53.106Z,45.40
2019-04-26T14:35:23.341Z,46.30
2019-04-26T14:37:53.308Z,44.90
2019-04-26T14:40:22.314Z,45.50
2019-04-26T14:43:05.730Z,44.20
2019-04-26T14:45:23.596Z,44.80
2019-04-26T14:47:52.282Z,46.20
2019-04-26T14:50:21.002Z,46.50
2019-04-26T14:52:49.814Z,46.30
2019-04-26T14:55:21.241Z,46.10
2019-04-26T14:57:51.260Z,47.40
2019-04-26T15:00:22.324Z,47.00
2019-04-26T15:02:55.991Z,46.20
2019-04-26T15:05:33.220Z,45.20
2019-04-26T15:08:03.907Z,45.00
2019-04-26T15:10:43.824Z,45.70
2019-04-26T15:13:17.127Z,46.50
2019-04-26T15:15:36.694Z,47.70
2019-04-26T15:18:05.439Z,48.10
2019-04-26T15:20:34.451Z,48.20
2019-04-26T15:23:03.404Z,47.50
2019-04-26T15:25:33.626Z,47.60
2019-04-26T15:28:06.791Z,46.10
2019-04-26T15:30:43.043Z,44.70
2019-04-26T15:33:09.031Z,44.40
2019-04-26T15:35:37.422Z,44.70
2019-04-26T15:38:06.771Z,43.90
2019-04-26T15:40:48.226Z,44.20
2019-04-26T15:43:24.539Z,42.40
2019-04-26T15:45:58.371Z,41.80
2019-04-26T15:48:34.661Z,41.80
2019-04-26T15:51:03.717Z,41.10
2019-04-26T15:53:33.177Z,40.10
2019-04-26T15:56:02.594Z,40.00
2019-04-26T15:58:32.608Z,41.20
2019-04-26T16:01:02.807Z,41.50
2019-04-26T16:03:32.759Z,41.80
2019-04-26T16:06:07.015Z,41.60
2019-04-26T16:08:42.624Z,40.60
2019-04-26T16:11:07.322Z,38.90
2019-04-26T16:13:52.146Z,39.60
2019-04-26T16:16:32.972Z,38.30
2019-04-26T16:19:00.493Z,38.00
2019-04-26T16:21:38.325Z,38.70
2019-04-26T16:24:07.174Z,39.80
2019-04-26T16:26:35.986Z,40.40
2019-04-26T16:29:06.524Z,40.90
2019-04-26T16:31:42.074Z,41.50
2019-04-26T16:34:14.739Z,41.50
2019-04-26T16:36:45.237Z,40.50
2019-04-26T16:39:14.350Z,41.30
2019-04-26T16:41:43.141Z,41.60
2019-04-26T16:44:13.032Z,42.00
2019-04-26T16:46:43.878Z,42.70
2019-04-26T16:49:14.604Z,42.40
2019-04-26T16:51:43.741Z,43.00
2019-04-26T16:54:20.972Z,43.30
2019-04-26T16:56:43.903Z,44.60
2019-04-26T16:59:22.373Z,45.50
2019-04-26T17:02:01.452Z,46.20
2019-04-26T17:04:32.065Z,47.00
2019-04-26T17:07:01.701Z,47.40
2019-04-26T17:09:29.750Z,47.70
2019-04-26T17:12:10.598Z,47.60
2019-04-26T17:14:40.482Z,47.80
2019-04-26T17:17:13.957Z,48.60
2019-04-26T17:19:41.013Z,48.80
2019-04-26T17:22:23.214Z,49.50
2019-04-26T17:24:56.887Z,49.80
2019-04-26T17:27:26.631Z,50.20
2019-04-26T17:29:58.944Z,50.00
2019-04-26T17:32:27.933Z,50.30
2019-04-26T17:35:08.649Z,50.60
2019-04-26T17:37:37.323Z,51.80
2019-04-26T17:40:06.264Z,51.90
2019-04-26T17:42:37.126Z,52.70
2019-04-26T17:45:10.907Z,53.10
2019-04-26T17:47:41.867Z,53.80
2019-04-26T17:50:10.994Z,53.30
2019-04-26T17:52:41.813Z,53.50
2019-04-26T17:55:14.916Z,53.80
2019-04-26T17:57:48.379Z,53.80
2019-04-26T18:00:22.329Z,54.30
2019-04-26T18:02:48.627Z,54.70
2019-04-26T18:05:19.095Z,55.00
2019-04-26T18:07:57.924Z,55.10
2019-04-26T18:10:20.808Z,55.50
2019-04-26T18:12:50.768Z,56.30
2019-04-26T18:15:19.927Z,55.90
2019-04-26T18:17:53.702Z,56.40
2019-04-26T18:20:24.026Z,56.70
2019-04-26T18:22:56.511Z,57.10
2019-04-26T18:25:25.270Z,57.20
2019-04-26T18:27:56.157Z,57.40
2019-04-26T18:30:26.618Z,58.20
2019-04-26T18:32:55.471Z,57.80
2019-04-26T18:35:24.211Z,57.70
2019-04-26T18:37:53.715Z,58.20
2019-04-26T18:40:23.203Z,58.80
2019-04-26T18:42:55.078Z,59.20
2019-04-26T18:45:28.834Z,59.00
2019-04-26T18:48:01.478Z,58.70
2019-04-26T18:50:28.417Z,58.50
2019-04-26T18:53:19.631Z,59.50
2019-04-26T18:55:50.915Z,59.00
2019-04-26T18:58:19.696Z,59.30
2019-04-26T19:00:48.854Z,59.60
2019-04-26T19:03:18.979Z,60.10
2019-04-26T19:05:48.224Z,63.10
2019-04-26T19:08:20.831Z,62.20
2019-04-26T19:11:00.551Z,62.50
2019-04-26T19:13:26.676Z,61.30
2019-04-26T19:16:01.231Z,61.60
2019-04-26T19:18:51.639Z,62.70
2019-04-26T19:21:40.806Z,61.40
2019-04-26T19:24:17.615Z,61.60
2019-04-26T19:26:49.586Z,61.90
2019-04-26T19:29:18.198Z,62.00
2019-04-26T19:32:07.519Z,62.20
2019-04-26T19:34:36.274Z,63.80
2019-04-26T19:37:07.119Z,64.20
2019-04-26T19:39:37.644Z,63.00
2019-04-26T19:42:06.469Z,63.50
2019-04-26T19:44:36.314Z,62.40
2019-04-26T19:47:12.299Z,62.90
2019-04-26T19:49:52.436Z,63.30
2019-04-26T19:52:39.386Z,61.00
2019-04-26T19:55:07.331Z,62.40
2019-04-26T19:57:41.046Z,62.50
2019-04-26T20:00:10.821Z,60.40
2019-04-26T20:02:42.048Z,60.20
2019-04-26T20:05:11.813Z,61.00
2019-04-26T20:07:41.985Z,60.80
2019-04-26T20:10:10.774Z,61.50
2019-04-26T20:12:41.512Z,61.80
2019-04-26T20:15:25.502Z,61.60
2019-04-26T20:17:43.634Z,61.70
2019-04-26T20:20:19.347Z,62.10
2019-04-26T20:22:43.016Z,63.00
2019-04-26T20:25:11.987Z,63.20
2019-04-26T20:27:42.803Z,63.60
2019-04-26T20:30:13.096Z,63.40
2019-04-26T20:32:47.487Z,63.10
2019-04-26T20:35:26.655Z,63.50
2019-04-26T20:37:56.299Z,63.70
2019-04-26T20:40:25.821Z,64.10
2019-04-26T20:43:02.138Z,64.70
2019-04-26T20:45:38.688Z,64.70
2019-04-26T20:47:59.323Z,64.70
2019-04-26T20:50:28.573Z,65.10
2019-04-26T20:53:00.564Z,65.50
2019-04-26T20:55:32.341Z,65.70
2019-04-26T20:58:07.074Z,66.20
2019-04-26T21:00:31.658Z,66.20
2019-04-26T21:03:05.926Z,65.80
2019-04-26T21:05:45.862Z,65.70
2019-04-26T21:08:05.493Z,68.80
2019-04-26T21:10:35.899Z,73.50
2019-04-26T21:13:05.250Z,70.90
2019-04-26T21:15:36.010Z,65.10
2019-04-26T21:18:05.840Z,64.80
2019-04-26T21:20:36.561Z,65.00
2019-04-26T21:23:06.083Z,65.00
2019-04-26T21:25:36.455Z,65.10
2019-04-26T21:28:15.977Z,65.30
2019-04-26T21:30:51.482Z,64.90
2019-04-26T21:33:24.671Z,65.00
2019-04-26T21:35:57.648Z,65.40
2019-04-26T21:38:30.514Z,65.60
2019-04-26T21:41:11.432Z,65.50
2019-04-26T21:43:38.396Z,65.40
2019-04-26T21:46:18.634Z,66.00
2019-04-26T21:48:44.466Z,65.90
2019-04-26T21:51:14.443Z,66.00
2019-04-26T21:53:45.140Z,65.80
2019-04-26T21:56:14.839Z,65.90
2019-04-26T21:58:46.024Z,66.10
2019-04-26T22:01:19.620Z,66.30
2019-04-26T22:03:54.498Z,66.60
2019-04-26T22:06:24.220Z,66.70
2019-04-26T22:08:55.678Z,66.60
2019-04-26T22:11:25.458Z,67.40
2019-04-26T22:14:03.044Z,67.10
2019-04-26T22:16:37.544Z,67.90
2019-04-26T22:19:23.915Z,67.40
2019-04-26T22:21:59.366Z,68.10
2019-04-26T22:24:30.616Z,68.20
2019-04-26T22:27:01.092Z,68.50
2019-04-26T22:29:29.983Z,69.20
2019-04-26T22:31:58.934Z,69.20
2019-04-26T22:34:27.664Z,69.20
2019-04-26T22:37:01.305Z,69.60
2019-04-26T22:39:34.007Z,70.00
2019-04-26T22:42:02.808Z,70.10
2019-04-26T22:44:48.324Z,70.40
2019-04-26T22:47:23.910Z,70.70
2019-04-26T22:49:52.503Z,71.10
2019-04-26T22:52:23.020Z,71.40
2019-04-26T22:54:53.728Z,71.30
2019-04-26T22:57:23.226Z,70.80
2019-04-26T22:59:53.534Z,71.70
2019-04-26T23:02:27.634Z,70.00
2019-04-26T23:04:56.025Z,70.20
2019-04-26T23:07:26.207Z,68.60
2019-04-26T23:09:55.495Z,68.20
2019-04-26T23:12:33.707Z,68.00
2019-04-26T23:15:13.427Z,67.50
2019-04-26T23:17:46.623Z,67.30
2019-04-26T23:20:20.100Z,66.80
2019-04-26T23:22:49.270Z,66.90
2019-04-26T23:25:18.420Z,67.20
2019-04-26T23:27:50.462Z,66.90
2019-04-26T23:30:19.531Z,66.90
2019-04-26T23:32:52.154Z,68.40
2019-04-26T23:35:19.145Z,70.10
2019-04-26T23:37:49.491Z,69.00
2019-04-26T23:40:20.647Z,67.70
2019-04-26T23:42:51.596Z,68.30
2019-04-26T23:45:20.404Z,69.10
2019-04-26T23:47:56.009Z,69.20
2019-04-26T23:50:30.509Z,69.60
2019-04-26T23:53:05.482Z,69.20
2019-04-26T23:55:38.072Z,69.30
2019-04-26T23:58:10.674Z,69.90
